Terminal Aerodrome Forecast
Issued by NWS

Home | Current Version | Previous Version | Text Only | Print | Product List | Glossary On
Versions: 1 2 3 4 5 6 7 8 9 10 11 12 13 14
402
FTUS42 KMHX 301121
TAFPGV
TAF
KPGV 301121Z 3012/3112 VRB03KT P6SM SKC
     FM301600 20008KT P6SM VCTS BKN040CB
     FM310200 VRB04KT P6SM BKN060
     FM310900 20005KT 5SM BR BKN050
      AMD LTD TO CLD VIS AND WIND=

USA.gov is the U.S. government's official web portal to all federal, state and local government web resources and services.